sensor_id;sensor_type;location;lat;lon;timestamp;P1;durP1;ratioP1;P2;durP2;ratioP2
14153;SDS011;7157;53.144;7.570;2024-02-28T00:05:48;28.60;;;10.75;;
14153;SDS011;7157;53.144;7.570;2024-02-28T00:15:52;24.40;;;10.05;;
14153;SDS011;7157;53.144;7.570;2024-02-28T00:25:55;27.02;;;9.85;;
14153;SDS011;7157;53.144;7.570;2024-02-28T00:35:59;27.50;;;11.07;;
14153;SDS011;7157;53.144;7.570;2024-02-28T00:46:02;99.63;;;12.05;;
14153;SDS011;7157;53.144;7.570;2024-02-28T00:56:07;171.50;;;16.17;;
14153;SDS011;7157;53.144;7.570;2024-02-28T01:06:09;78.63;;;11.07;;
14153;SDS011;7157;53.144;7.570;2024-02-28T01:16:14;120.25;;;13.13;;
14153;SDS011;7157;53.144;7.570;2024-02-28T01:26:17;128.82;;;14.95;;
14153;SDS011;7157;53.144;7.570;2024-02-28T01:36:23;71.90;;;13.63;;
14153;SDS011;7157;53.144;7.570;2024-02-28T01:46:26;56.30;;;13.25;;
14153;SDS011;7157;53.144;7.570;2024-02-28T01:56:31;43.45;;;12.48;;
14153;SDS011;7157;53.144;7.570;2024-02-28T02:06:34;54.75;;;12.88;;
14153;SDS011;7157;53.144;7.570;2024-02-28T02:16:42;105.40;;;14.20;;
14153;SDS011;7157;53.144;7.570;2024-02-28T02:26:47;57.40;;;13.77;;
14153;SDS011;7157;53.144;7.570;2024-02-28T02:36:52;48.00;;;11.95;;
14153;SDS011;7157;53.144;7.570;2024-02-28T02:46:56;77.35;;;14.43;;
14153;SDS011;7157;53.144;7.570;2024-02-28T02:56:59;88.10;;;15.32;;
14153;SDS011;7157;53.144;7.570;2024-02-28T03:07:04;56.38;;;13.80;;
14153;SDS011;7157;53.144;7.570;2024-02-28T03:17:07;56.47;;;13.60;;
14153;SDS011;7157;53.144;7.570;2024-02-28T03:27:11;116.78;;;16.17;;
14153;SDS011;7157;53.144;7.570;2024-02-28T03:37:14;93.18;;;17.67;;
14153;SDS011;7157;53.144;7.570;2024-02-28T03:47:18;50.50;;;14.75;;
14153;SDS011;7157;53.144;7.570;2024-02-28T03:57:21;58.70;;;14.43;;
14153;SDS011;7157;53.144;7.570;2024-02-28T04:07:25;54.63;;;14.77;;
14153;SDS011;7157;53.144;7.570;2024-02-28T04:17:28;60.28;;;15.45;;
14153;SDS011;7157;53.144;7.570;2024-02-28T04:27:32;39.05;;;13.27;;
14153;SDS011;7157;53.144;7.570;2024-02-28T04:37:35;31.48;;;11.85;;
14153;SDS011;7157;53.144;7.570;2024-02-28T04:47:39;30.85;;;12.02;;
14153;SDS011;7157;53.144;7.570;2024-02-28T04:57:45;36.53;;;12.68;;
14153;SDS011;7157;53.144;7.570;2024-02-28T05:07:50;45.30;;;13.43;;
14153;SDS011;7157;53.144;7.570;2024-02-28T05:17:52;43.70;;;14.85;;
14153;SDS011;7157;53.144;7.570;2024-02-28T05:27:57;46.70;;;14.82;;
14153;SDS011;7157;53.144;7.570;2024-02-28T05:38:00;38.88;;;13.27;;
14153;SDS011;7157;53.144;7.570;2024-02-28T05:48:05;37.90;;;14.57;;
14153;SDS011;7157;53.144;7.570;2024-02-28T05:58:09;38.70;;;13.68;;
14153;SDS011;7157;53.144;7.570;2024-02-28T06:08:13;44.05;;;15.63;;
14153;SDS011;7157;53.144;7.570;2024-02-28T06:18:16;42.00;;;15.65;;
14153;SDS011;7157;53.144;7.570;2024-02-28T06:28:20;29.63;;;12.05;;
14153;SDS011;7157;53.144;7.570;2024-02-28T06:38:23;51.55;;;14.45;;
14153;SDS011;7157;53.144;7.570;2024-02-28T06:48:28;43.13;;;14.52;;
14153;SDS011;7157;53.144;7.570;2024-02-28T06:58:31;39.95;;;15.18;;
14153;SDS011;7157;53.144;7.570;2024-02-28T07:08:35;49.15;;;15.07;;
14153;SDS011;7157;53.144;7.570;2024-02-28T07:18:38;49.78;;;14.98;;
14153;SDS011;7157;53.144;7.570;2024-02-28T07:28:42;54.13;;;15.25;;
14153;SDS011;7157;53.144;7.570;2024-02-28T07:38:50;41.97;;;16.05;;
14153;SDS011;7157;53.144;7.570;2024-02-28T07:48:55;46.95;;;15.65;;
14153;SDS011;7157;53.144;7.570;2024-02-28T07:58:58;37.95;;;13.85;;
14153;SDS011;7157;53.144;7.570;2024-02-28T08:09:02;37.90;;;13.93;;
14153;SDS011;7157;53.144;7.570;2024-02-28T08:19:05;46.05;;;15.52;;
14153;SDS011;7157;53.144;7.570;2024-02-28T08:29:10;39.80;;;15.38;;
14153;SDS011;7157;53.144;7.570;2024-02-28T08:39:12;40.50;;;15.52;;
14153;SDS011;7157;53.144;7.570;2024-02-28T08:49:17;49.38;;;15.82;;
14153;SDS011;7157;53.144;7.570;2024-02-28T08:59:19;35.05;;;13.52;;
14153;SDS011;7157;53.144;7.570;2024-02-28T09:09:24;40.55;;;14.05;;
14153;SDS011;7157;53.144;7.570;2024-02-28T09:19:27;46.20;;;14.32;;
14153;SDS011;7157;53.144;7.570;2024-02-28T09:29:31;42.67;;;15.20;;
14153;SDS011;7157;53.144;7.570;2024-02-28T09:39:34;44.90;;;15.20;;
14153;SDS011;7157;53.144;7.570;2024-02-28T09:49:42;50.05;;;17.08;;
14153;SDS011;7157;53.144;7.570;2024-02-28T09:59:47;47.22;;;16.38;;
14153;SDS011;7157;53.144;7.570;2024-02-28T10:09:58;39.35;;;14.52;;
14153;SDS011;7157;53.144;7.570;2024-02-28T10:20:01;42.67;;;16.10;;
14153;SDS011;7157;53.144;7.570;2024-02-28T10:30:07;50.00;;;18.38;;
14153;SDS011;7157;53.144;7.570;2024-02-28T10:40:11;47.95;;;16.85;;
14153;SDS011;7157;53.144;7.570;2024-02-28T10:50:16;39.60;;;14.77;;
14153;SDS011;7157;53.144;7.570;2024-02-28T11:00:19;36.50;;;14.95;;
14153;SDS011;7157;53.144;7.570;2024-02-28T11:10:30;40.20;;;14.30;;
14153;SDS011;7157;53.144;7.570;2024-02-28T11:20:33;38.75;;;14.23;;
14153;SDS011;7157;53.144;7.570;2024-02-28T11:30:40;35.00;;;13.93;;
14153;SDS011;7157;53.144;7.570;2024-02-28T11:40:48;35.42;;;16.52;;
14153;SDS011;7157;53.144;7.570;2024-02-28T11:50:52;35.72;;;15.45;;
14153;SDS011;7157;53.144;7.570;2024-02-28T12:00:55;28.17;;;14.05;;
14153;SDS011;7157;53.144;7.570;2024-02-28T12:11:07;28.77;;;15.98;;
14153;SDS011;7157;53.144;7.570;2024-02-28T12:21:11;33.97;;;16.95;;
14153;SDS011;7157;53.144;7.570;2024-02-28T12:31:15;32.90;;;16.17;;
14153;SDS011;7157;53.144;7.570;2024-02-28T12:41:20;29.88;;;14.88;;
14153;SDS011;7157;53.144;7.570;2024-02-28T12:51:37;28.40;;;13.77;;
14153;SDS011;7157;53.144;7.570;2024-02-28T13:01:42;28.63;;;14.00;;
14153;SDS011;7157;53.144;7.570;2024-02-28T13:11:46;30.85;;;14.27;;
14153;SDS011;7157;53.144;7.570;2024-02-28T13:21:49;29.88;;;14.10;;
14153;SDS011;7157;53.144;7.570;2024-02-28T13:31:53;27.33;;;13.95;;
14153;SDS011;7157;53.144;7.570;2024-02-28T13:41:56;32.78;;;14.80;;
14153;SDS011;7157;53.144;7.570;2024-02-28T13:52:02;31.48;;;14.07;;
14153;SDS011;7157;53.144;7.570;2024-02-28T14:02:05;29.10;;;15.07;;
14153;SDS011;7157;53.144;7.570;2024-02-28T14:12:11;29.95;;;14.60;;
14153;SDS011;7157;53.144;7.570;2024-02-28T14:22:15;35.78;;;16.75;;
14153;SDS011;7157;53.144;7.570;2024-02-28T14:32:19;26.73;;;12.00;;
14153;SDS011;7157;53.144;7.570;2024-02-28T14:42:21;34.33;;;16.98;;
14153;SDS011;7157;53.144;7.570;2024-02-28T14:52:26;27.65;;;13.45;;
14153;SDS011;7157;53.144;7.570;2024-02-28T15:02:29;30.60;;;16.15;;
14153;SDS011;7157;53.144;7.570;2024-02-28T15:12:33;34.00;;;16.67;;
14153;SDS011;7157;53.144;7.570;2024-02-28T15:22:36;32.38;;;15.82;;
14153;SDS011;7157;53.144;7.570;2024-02-28T15:32:41;34.85;;;16.38;;
14153;SDS011;7157;53.144;7.570;2024-02-28T15:42:44;26.17;;;12.27;;
14153;SDS011;7157;53.144;7.570;2024-02-28T15:52:48;31.30;;;15.70;;
14153;SDS011;7157;53.144;7.570;2024-02-28T16:02:51;30.88;;;14.70;;
14153;SDS011;7157;53.144;7.570;2024-02-28T16:12:55;30.00;;;15.50;;
14153;SDS011;7157;53.144;7.570;2024-02-28T16:22:58;36.20;;;15.32;;
14153;SDS011;7157;53.144;7.570;2024-02-28T16:33:05;26.42;;;13.63;;
14153;SDS011;7157;53.144;7.570;2024-02-28T16:43:08;30.30;;;14.65;;
14153;SDS011;7157;53.144;7.570;2024-02-28T16:53:12;35.75;;;15.82;;
14153;SDS011;7157;53.144;7.570;2024-02-28T17:03:15;35.00;;;16.13;;
14153;SDS011;7157;53.144;7.570;2024-02-28T17:13:20;33.35;;;16.33;;
14153;SDS011;7157;53.144;7.570;2024-02-28T17:23:23;41.67;;;18.02;;
14153;SDS011;7157;53.144;7.570;2024-02-28T17:33:28;38.60;;;17.60;;
14153;SDS011;7157;53.144;7.570;2024-02-28T17:43:31;38.30;;;17.33;;
14153;SDS011;7157;53.144;7.570;2024-02-28T17:53:35;29.95;;;14.02;;
14153;SDS011;7157;53.144;7.570;2024-02-28T18:03:38;39.22;;;18.83;;
14153;SDS011;7157;53.144;7.570;2024-02-28T18:13:44;45.60;;;18.15;;
14153;SDS011;7157;53.144;7.570;2024-02-28T18:23:47;45.05;;;19.63;;
14153;SDS011;7157;53.144;7.570;2024-02-28T18:33:51;41.90;;;17.50;;
14153;SDS011;7157;53.144;7.570;2024-02-28T18:43:54;43.38;;;18.63;;
14153;SDS011;7157;53.144;7.570;2024-02-28T18:53:58;55.67;;;20.60;;
14153;SDS011;7157;53.144;7.570;2024-02-28T19:04:04;50.17;;;19.80;;
14153;SDS011;7157;53.144;7.570;2024-02-28T19:14:08;50.55;;;18.88;;
14153;SDS011;7157;53.144;7.570;2024-02-28T19:24:11;49.35;;;18.05;;
14153;SDS011;7157;53.144;7.570;2024-02-28T19:34:15;33.42;;;14.65;;
14153;SDS011;7157;53.144;7.570;2024-02-28T19:44:19;45.95;;;17.25;;
14153;SDS011;7157;53.144;7.570;2024-02-28T19:54:24;58.47;;;18.63;;
14153;SDS011;7157;53.144;7.570;2024-02-28T20:04:28;64.45;;;21.52;;
14153;SDS011;7157;53.144;7.570;2024-02-28T20:14:32;57.25;;;19.85;;
14153;SDS011;7157;53.144;7.570;2024-02-28T20:24:35;59.95;;;21.35;;
14153;SDS011;7157;53.144;7.570;2024-02-28T20:34:40;42.70;;;18.35;;
14153;SDS011;7157;53.144;7.570;2024-02-28T20:44:43;51.03;;;18.75;;
14153;SDS011;7157;53.144;7.570;2024-02-28T20:54:47;52.25;;;20.75;;
14153;SDS011;7157;53.144;7.570;2024-02-28T21:04:50;53.83;;;21.30;;
14153;SDS011;7157;53.144;7.570;2024-02-28T21:14:54;56.20;;;21.45;;
14153;SDS011;7157;53.144;7.570;2024-02-28T21:24:57;56.20;;;20.67;;
14153;SDS011;7157;53.144;7.570;2024-02-28T21:35:02;49.97;;;20.15;;
14153;SDS011;7157;53.144;7.570;2024-02-28T21:45:07;56.08;;;21.33;;
14153;SDS011;7157;53.144;7.570;2024-02-28T21:55:12;55.90;;;22.17;;
14153;SDS011;7157;53.144;7.570;2024-02-28T22:05:15;55.22;;;21.08;;
14153;SDS011;7157;53.144;7.570;2024-02-28T22:15:22;59.60;;;20.92;;
14153;SDS011;7157;53.144;7.570;2024-02-28T22:25:25;48.53;;;19.73;;
14153;SDS011;7157;53.144;7.570;2024-02-28T22:35:29;47.42;;;19.25;;
14153;SDS011;7157;53.144;7.570;2024-02-28T22:45:32;41.63;;;17.20;;
14153;SDS011;7157;53.144;7.570;2024-02-28T22:55:36;52.30;;;21.13;;
14153;SDS011;7157;53.144;7.570;2024-02-28T23:05:39;56.08;;;20.77;;
14153;SDS011;7157;53.144;7.570;2024-02-28T23:15:43;52.15;;;20.00;;
14153;SDS011;7157;53.144;7.570;2024-02-28T23:25:46;56.75;;;18.70;;
14153;SDS011;7157;53.144;7.570;2024-02-28T23:35:50;56.80;;;20.23;;
14153;SDS011;7157;53.144;7.570;2024-02-28T23:45:53;48.92;;;17.52;;
14153;SDS011;7157;53.144;7.570;2024-02-28T23:55:58;62.72;;;19.55;;
